Time;durP1;ratioP1;P1;durP2;ratioP2;P2;SDS_P1;SDS_P2;PMS_P1;PMS_P2;Temp;Humidity;BMP_temperature;BMP_pressure;BME280_temperature;BME280_humidity;BME280_pressure;Samples;Min_cycle;Max_cycle;Signal;HPM_P1;HPM_P2
2023/05/10 00:00:43;;;;;;;;;;;;;;;;;;4959024;28;19926;-91
2023/05/10 00:03:09;;;;;;;;;;;;;;;;;;4958993;28;19926;-91
2023/05/10 00:05:35;;;;;;;;;;;;;;;;;;4959251;28;20295;-92
2023/05/10 00:08:01;;;;;;;;;;;;;;;;;;4959220;28;20375;-92
2023/05/10 00:10:27;;;;;;;;;;;;;;;;;;4958802;28;19922;-90
2023/05/10 00:12:53;;;;;;;;;;;;;;;;;;4959188;28;19937;-91
2023/05/10 00:15:19;;;;;;;;;;;;;;;;;;4975202;28;19980;-91
2023/05/10 00:17:45;;;;;;;;;;;;;;;;;;4959127;28;20443;-92
2023/05/10 00:20:10;;;;;;;;;;;;;;;;;;4958705;28;19926;-92
2023/05/10 00:22:36;;;;;;;;;;;;;;;;;;4959090;28;20416;-92
2023/05/10 00:25:02;;;;;;;;;;;;;;;;;;4958861;28;19933;-91
2023/05/10 00:27:28;;;;;;;;;;;;;;;;;;4959032;28;20422;-92
2023/05/10 00:29:54;;;;;;;;;;;;;;;;;;4958806;28;19929;-92
2023/05/10 00:32:20;;;;;;;;;;;;;;;;;;4958204;28;20445;-92
2023/05/10 00:34:46;;;;;;;;;;;;;;;;;;4958802;28;19929;-91
2023/05/10 00:37:12;;;;;;;;;;;;;;;;;;4958144;28;19927;-91
2023/05/10 00:39:38;;;;;;;;;;;;;;;;;;4958675;28;20039;-92
2023/05/10 00:42:04;;;;;;;;;;;;;;;;;;4958926;28;19922;-92
2023/05/10 00:44:30;;;;;;;;;;;;;;;;;;4959148;28;19922;-92
2023/05/10 00:46:56;;;;;;;;;;;;;;;;;;4958562;28;19922;-90
2023/05/10 00:49:22;;;;;;;;;;;;;;;;;;4958325;28;20017;-92
2023/05/10 00:51:48;;;;;;;;;;;;;;;;;;4958289;28;20283;-91
2023/05/10 00:54:14;;;;;;;;;;;;;;;;;;4958179;28;20374;-91
2023/05/10 00:56:40;;;;;;;;;;;;;;;;;;4958166;28;19926;-91
2023/05/10 00:59:06;;;;;;;;;;;;;;;;;;4958449;28;20012;-91
2023/05/10 01:01:32;;;;;;;;;;;;;;;;;;4958138;28;19922;-90
2023/05/10 01:03:58;;;;;;;;;;;;;;;;;;4958011;28;19922;-91
2023/05/10 01:06:24;;;;;;;;;;;;;;;;;;4957940;28;19929;-90
2023/05/10 01:08:50;;;;;;;;;;;;;;;;;;4957953;28;19922;-91
2023/05/10 01:11:16;;;;;;;;;;;;;;;;;;4957979;28;19922;-90
2023/05/10 01:13:42;;;;;;;;;;;;;;;;;;4957912;28;19930;-90
2023/05/10 01:16:08;;;;;;;;;;;;;;;;;;4957373;28;20443;-90
2023/05/10 01:18:34;;;;;;;;;;;;;;;;;;4957878;28;20386;-90
2023/05/10 01:20:59;;;;;;;;;;;;;;;;;;4957577;28;19969;-90
2023/05/10 01:23:25;;;;;;;;;;;;;;;;;;4957110;28;19922;-90
2023/05/10 01:25:51;;;;;;;;;;;;;;;;;;4957354;28;20438;-89
2023/05/10 01:28:17;;;;;;;;;;;;;;;;;;4957588;28;20005;-90
2023/05/10 01:30:43;;;;;;;;;;;;;;;;;;4957140;28;20490;-89
2023/05/10 01:33:09;;;;;;;;;;;;;;;;;;4957497;28;19929;-90
2023/05/10 01:35:35;;;;;;;;;;;;;;;;;;4957390;28;20300;-90
2023/05/10 01:38:01;;;;;;;;;;;;;;;;;;4957429;28;20013;-90
2023/05/10 01:40:27;;;;;;;;;;;;;;;;;;4956960;28;20013;-90
2023/05/10 01:42:53;;;;;;;;;;;;;;;;;;4956510;28;19926;-90
2023/05/10 01:45:19;;;;;;;;;;;;;;;;;;4957175;28;19929;-90
2023/05/10 01:47:45;;;;;;;;;;;;;;;;;;4957241;28;19929;-90
2023/05/10 01:50:11;;;;;;;;;;;;;;;;;;4956769;28;19922;-90
2023/05/10 01:52:37;;;;;;;;;;;;;;;;;;4956964;28;19922;-90
2023/05/10 01:55:03;;;;;;;;;;;;;;;;;;4956735;28;20448;-90
2023/05/10 01:57:29;;;;;;;;;;;;;;;;;;4957184;28;19926;-90
2023/05/10 01:59:55;;;;;;;;;;;;;;;;;;4973007;28;19926;-90
2023/05/10 02:02:21;;;;;;;;;;;;;;;;;;4957257;28;20371;-89
2023/05/10 02:04:47;;;;;;;;;;;;;;;;;;4973321;28;19976;-90
2023/05/10 02:07:13;;;;;;;;;;;;;;;;;;4957249;28;20000;-90
2023/05/10 02:09:38;;;;;;;;;;;;;;;;;;4956949;28;19922;-90
2023/05/10 02:12:04;;;;;;;;;;;;;;;;;;4973181;28;20322;-89
2023/05/10 02:14:30;;;;;;;;;;;;;;;;;;4973039;28;20402;-89
2023/05/10 02:16:56;;;;;;;;;;;;;;;;;;4972407;28;19941;-89
2023/05/10 02:19:22;;;;;;;;;;;;;;;;;;4956634;28;19983;-90
2023/05/10 02:21:48;;;;;;;;;;;;;;;;;;4956708;28;20379;-90
2023/05/10 02:24:14;;;;;;;;;;;;;;;;;;4957020;28;19937;-91
2023/05/10 02:26:40;;;;;;;;;;;;;;;;;;4956567;28;20383;-90
2023/05/10 02:29:06;;;;;;;;;;;;;;;;;;4956837;28;19922;-90
2023/05/10 02:31:32;;;;;;;;;;;;;;;;;;4956615;28;19922;-90
2023/05/10 02:33:58;;;;;;;;;;;;;;;;;;4957053;28;20360;-89
2023/05/10 02:36:24;;;;;;;;;;;;;;;;;;4956797;28;19933;-89
2023/05/10 02:38:50;;;;;;;;;;;;;;;;;;4956783;28;19926;-89
2023/05/10 02:41:16;;;;;;;;;;;;;;;;;;4972826;28;20346;-90
2023/05/10 02:43:41;;;;;;;;;;;;;;;;;;4956703;28;19922;-90
2023/05/10 02:46:07;;;;;;;;;;;;;;;;;;4956496;28;20009;-89
2023/05/10 02:48:33;;;;;;;;;;;;;;;;;;4972689;28;19926;-90
2023/05/10 02:50:59;;;;;;;;;;;;;;;;;;4956698;28;19944;-89
2023/05/10 02:53:25;;;;;;;;;;;;;;;;;;4956744;28;19926;-90
2023/05/10 02:55:51;;;;;;;;;;;;;;;;;;4960002;28;19922;-89
2023/05/10 02:58:19;;;;;;;;;;;;;;;;;;4960484;28;20206;-90
2023/05/10 03:00:46;;;;;;;;;;;;;;;;;;4976469;28;19930;-91
2023/05/10 03:03:11;;;;;;;;;;;;;;;;;;4960425;28;19928;-90
2023/05/10 03:05:37;;;;;;;;;;;;;;;;;;4960006;28;19922;-91
2023/05/10 03:08:04;;;;;;;;;;;;;;;;;;4960305;28;19926;-91
2023/05/10 03:10:30;;;;;;;;;;;;;;;;;;4960165;28;20343;-90
2023/05/10 03:12:56;;;;;;;;;;;;;;;;;;4960304;28;19922;-91
2023/05/10 03:15:22;;;;;;;;;;;;;;;;;;4959800;28;19926;-91
2023/05/10 03:17:48;;;;;;;;;;;;;;;;;;4960051;28;20383;-90
2023/05/10 03:20:14;;;;;;;;;;;;;;;;;;4959637;28;20029;-90
2023/05/10 03:22:40;;;;;;;;;;;;;;;;;;4959933;28;19965;-90
2023/05/10 03:25:06;;;;;;;;;;;;;;;;;;4959302;28;20272;-91
2023/05/10 03:27:32;;;;;;;;;;;;;;;;;;4959719;28;20010;-91
2023/05/10 03:29:58;;;;;;;;;;;;;;;;;;4960095;28;20016;-90
2023/05/10 03:32:23;;;;;;;;;;;;;;;;;;4976171;28;20053;-90
2023/05/10 03:34:50;;;;;;;;;;;;;;;;;;4959799;28;19922;-90
2023/05/10 03:37:15;;;;;;;;;;;;;;;;;;4959677;28;20008;-90
2023/05/10 03:39:41;;;;;;;;;;;;;;;;;;4959481;28;20338;-90
2023/05/10 03:42:07;;;;;;;;;;;;;;;;;;4959808;28;19922;-90
2023/05/10 03:44:33;;;;;;;;;;;;;;;;;;4959571;28;19922;-90
2023/05/10 03:46:59;;;;;;;;;;;;;;;;;;4959380;28;20017;-90
2023/05/10 03:49:25;;;;;;;;;;;;;;;;;;4959232;28;19926;-89
2023/05/10 03:51:51;;;;;;;;;;;;;;;;;;4959865;28;19961;-90
2023/05/10 03:54:17;;;;;;;;;;;;;;;;;;4959342;28;19921;-90
2023/05/10 03:56:42;;;;;;;;;;;;;;;;;;4958774;28;19926;-89
2023/05/10 03:59:08;;;;;;;;;;;;;;;;;;4959250;28;19922;-90
2023/05/10 04:01:34;;;;;;;;;;;;;;;;;;4974903;28;19929;-90
2023/05/10 04:04:00;;;;;;;;;;;;;;;;;;4947418;28;20009;-90
2023/05/10 04:06:26;;;;;;;;;;;;;;;;;;4953621;28;20024;-90
2023/05/10 04:08:52;;;;;;;;;;;;;;;;;;4950940;28;19973;-90
2023/05/10 04:11:18;;;;;;;;;;;;;;;;;;4950293;28;19927;-90
2023/05/10 04:13:44;;;;;;;;;;;;;;;;;;4950296;29;19926;-90
2023/05/10 04:16:10;;;;;;;;;;;;;;;;;;4951313;29;19977;-90
2023/05/10 04:18:36;;;;;;;;;;;;;;;;;;4966714;28;19926;-90
2023/05/10 04:21:02;;;;;;;;;;;;;;;;;;4963921;28;20002;-89
2023/05/10 04:23:28;;;;;;;;;;;;;;;;;;4953387;28;19922;-89
2023/05/10 04:25:54;;;;;;;;;;;;;;;;;;4952520;28;19926;-90
2023/05/10 04:28:21;;;;;;;;;;;;;;;;;;4947681;28;20054;-90
2023/05/10 04:30:47;;;;;;;;;;;;;;;;;;4947951;28;19923;-90
2023/05/10 04:33:14;;;;;;;;;;;;;;;;;;4950246;28;20379;-90
2023/05/10 04:35:40;;;;;;;;;;;;;;;;;;4954234;28;19922;-90
2023/05/10 04:38:06;;;;;;;;;;;;;;;;;;4953909;28;19926;-90
2023/05/10 04:40:31;;;;;;;;;;;;;;;;;;4963244;28;19972;-89
2023/05/10 04:42:57;;;;;;;;;;;;;;;;;;4947100;28;19922;-89
2023/05/10 04:45:23;;;;;;;;;;;;;;;;;;4955970;28;20017;-89
2023/05/10 04:47:49;;;;;;;;;;;;;;;;;;4953148;28;20017;-90
2023/05/10 04:50:15;;;;;;;;;;;;;;;;;;4949048;28;20367;-89
2023/05/10 04:52:41;;;;;;;;;;;;;;;;;;4947051;28;19949;-90
2023/05/10 04:55:09;;;;;;;;;;;;;;;;;;4949840;28;19949;-89
2023/05/10 04:57:35;;;;;;;;;;;;;;;;;;4953892;28;19980;-89
2023/05/10 05:00:01;;;;;;;;;;;;;;;;;;4949390;28;20020;-89
2023/05/10 05:02:27;;;;;;;;;;;;;;;;;;4965932;28;19926;-90
2023/05/10 05:04:53;;;;;;;;;;;;;;;;;;4949875;28;19929;-89
2023/05/10 05:07:19;;;;;;;;;;;;;;;;;;4948222;28;19923;-89
2023/05/10 05:09:45;;;;;;;;;;;;;;;;;;4947049;28;20398;-89
2023/05/10 05:12:13;;;;;;;;;;;;;;;;;;4965218;28;19922;-89
2023/05/10 05:14:39;;;;;;;;;;;;;;;;;;4966107;28;19976;-89
2023/05/10 05:17:05;;;;;;;;;;;;;;;;;;4945787;28;19927;-89
2023/05/10 05:19:31;;;;;;;;;;;;;;;;;;4952876;28;19926;-89
2023/05/10 05:21:57;;;;;;;;;;;;;;;;;;4946832;28;20336;-89
2023/05/10 05:24:23;;;;;;;;;;;;;;;;;;4948636;28;19929;-90
2023/05/10 05:26:49;;;;;;;;;;;;;;;;;;4947499;28;19926;-89
2023/05/10 05:29:15;;;;;;;;;;;;;;;;;;4949931;28;20343;-90
2023/05/10 05:31:40;;;;;;;;;;;;;;;;;;4962589;28;19929;-91
2023/05/10 05:34:06;;;;;;;;;;;;;;;;;;4967774;28;19968;-90
2023/05/10 05:36:32;;;;;;;;;;;;;;;;;;4962167;28;20364;-90
2023/05/10 05:38:58;;;;;;;;;;;;;;;;;;4944726;28;19930;-90
2023/05/10 05:41:24;;;;;;;;;;;;;;;;;;4946944;28;19933;-90
2023/05/10 05:43:50;;;;;;;;;;;;;;;;;;4947931;28;19923;-89
2023/05/10 05:46:16;;;;;;;;;;;;;;;;;;4947378;28;19926;-90
2023/05/10 05:48:42;;;;;;;;;;;;;;;;;;4948699;28;19977;-90
2023/05/10 05:51:08;;;;;;;;;;;;;;;;;;4961897;28;19923;-90
2023/05/10 05:53:34;;;;;;;;;;;;;;;;;;4950056;28;19925;-89
2023/05/10 05:56:00;;;;;;;;;;;;;;;;;;4949845;28;19933;-91
2023/05/10 05:58:26;;;;;;;;;;;;;;;;;;4968133;28;20020;-90
2023/05/10 06:00:51;;;;;;;;;;;;;;;;;;4944976;28;20367;-89
2023/05/10 06:03:17;;;;;;;;;;;;;;;;;;4949391;28;19929;-91
2023/05/10 06:05:43;;;;;;;;;;;;;;;;;;4948151;28;19922;-90
2023/05/10 06:08:09;;;;;;;;;;;;;;;;;;4946160;28;19930;-89
2023/05/10 06:10:35;;;;;;;;;;;;;;;;;;4948685;28;19945;-90
2023/05/10 06:13:01;;;;;;;;;;;;;;;;;;4945310;29;20350;-90
2023/05/10 06:15:27;;;;;;;;;;;;;;;;;;4945610;28;19930;-90
2023/05/10 06:17:53;;;;;;;;;;;;;;;;;;4945462;28;20021;-90
2023/05/10 06:20:19;;;;;;;;;;;;;;;;;;4964416;28;19969;-89
2023/05/10 06:22:45;;;;;;;;;;;;;;;;;;4946399;28;19923;-90
2023/05/10 06:25:11;;;;;;;;;;;;;;;;;;4947892;28;19929;-90
2023/05/10 06:27:37;;;;;;;;;;;;;;;;;;4949920;28;20146;-90
2023/05/10 06:30:03;;;;;;;;;;;;;;;;;;4954119;28;19926;-90
2023/05/10 06:32:29;;;;;;;;;;;;;;;;;;4956749;28;20005;-90
2023/05/10 06:34:55;;;;;;;;;;;;;;;;;;4951934;28;19922;-89
2023/05/10 06:37:21;;;;;;;;;;;;;;;;;;4955545;28;19930;-89
2023/05/10 06:39:47;;;;;;;;;;;;;;;;;;4950752;28;19966;-94
2023/05/10 06:42:13;;;;;;;;;;;;;;;;;;4952149;28;19922;-90
2023/05/10 06:44:39;;;;;;;;;;;;;;;;;;4952422;28;19989;-89
2023/05/10 06:47:07;;;;;;;;;;;;;;;;;;4958898;28;19926;-91
2023/05/10 06:49:33;;;;;;;;;;;;;;;;;;4960889;28;19926;-91
2023/05/10 06:51:59;;;;;;;;;;;;;;;;;;4961542;28;19976;-91
2023/05/10 06:54:24;;;;;;;;;;;;;;;;;;4961667;28;20406;-89
2023/05/10 06:56:50;;;;;;;;;;;;;;;;;;4977398;28;19933;-87
2023/05/10 06:59:18;;;;;;;;;;;;;;;;;;4960707;28;19922;-87
2023/05/10 07:01:44;;;;;;;;;;;;;;;;;;4958263;28;19926;-88
2023/05/10 07:04:10;;;;;;;;;;;;;;;;;;4952110;28;20291;-87
2023/05/10 07:06:36;;;;;;;;;;;;;;;;;;4948642;28;19922;-88
2023/05/10 07:09:02;;;;;;;;;;;;;;;;;;4951046;28;19926;-87
2023/05/10 07:11:28;;;;;;;;;;;;;;;;;;4947502;29;19929;-88
2023/05/10 07:13:54;;;;;;;;;;;;;;;;;;4964334;28;20483;-89
2023/05/10 07:16:21;;;;;;;;;;;;;;;;;;4954581;28;19937;-88
2023/05/10 07:18:47;;;;;;;;;;;;;;;;;;4960321;28;20349;-87
2023/05/10 07:21:13;;;;;;;;;;;;;;;;;;4953536;28;19922;-87
2023/05/10 07:23:38;;;;;;;;;;;;;;;;;;4963623;28;19969;-87
2023/05/10 07:26:04;;;;;;;;;;;;;;;;;;4947593;28;19977;-89
2023/05/10 07:28:30;;;;;;;;;;;;;;;;;;4958028;28;20371;-89
2023/05/10 07:30:56;;;;;;;;;;;;;;;;;;4947630;29;20362;-90
2023/05/10 07:33:22;;;;;;;;;;;;;;;;;;4954901;28;19932;-89
2023/05/10 07:35:48;;;;;;;;;;;;;;;;;;4948564;28;19922;-90
2023/05/10 07:38:14;;;;;;;;;;;;;;;;;;4949049;28;19960;-88
2023/05/10 07:40:40;;;;;;;;;;;;;;;;;;4946537;28;19950;-88
2023/05/10 07:43:06;;;;;;;;;;;;;;;;;;4949902;28;19922;-87
2023/05/10 07:45:32;;;;;;;;;;;;;;;;;;4947467;28;20056;-89
2023/05/10 07:47:58;;;;;;;;;;;;;;;;;;4952158;28;19973;-89
2023/05/10 07:50:24;;;;;;;;;;;;;;;;;;4955891;28;20009;-87
2023/05/10 07:52:50;;;;;;;;;;;;;;;;;;4973310;28;19937;-89
2023/05/10 07:55:16;;;;;;;;;;;;;;;;;;4957705;28;20429;-89
2023/05/10 07:57:41;;;;;;;;;;;;;;;;;;4959015;28;19933;-91
2023/05/10 08:00:07;;;;;;;;;;;;;;;;;;4974321;28;19922;-89
2023/05/10 08:02:33;;;;;;;;;;;;;;;;;;4959121;28;20290;-91
2023/05/10 08:04:59;;;;;;;;;;;;;;;;;;4957564;28;20264;-87
2023/05/10 08:07:25;;;;;;;;;;;;;;;;;;4957219;28;20342;-86
2023/05/10 08:09:51;;;;;;;;;;;;;;;;;;4952682;28;20383;-87
2023/05/10 08:12:17;;;;;;;;;;;;;;;;;;4955642;28;19922;-86
2023/05/10 08:14:43;;;;;;;;;;;;;;;;;;4956464;28;19980;-87
2023/05/10 08:17:09;;;;;;;;;;;;;;;;;;4957949;28;19973;-93
2023/05/10 08:19:35;;;;;;;;;;;;;;;;;;4957226;28;20363;-95
2023/05/10 08:22:00;;;;;;;;;;;;;;;;;;4958237;28;19926;-91
2023/05/10 08:24:26;;;;;;;;;;;;;;;;;;4958546;28;19930;-87
2023/05/10 08:26:52;;;;;;;;;;;;;;;;;;4955072;28;19922;-88
2023/05/10 08:29:18;;;;;;;;;;;;;;;;;;4957019;28;20497;-88
2023/05/10 08:31:45;;;;;;;;;;;;;;;;;;4973903;28;20254;-88
2023/05/10 08:34:10;;;;;;;;;;;;;;;;;;4957557;28;19923;-88
2023/05/10 08:36:37;;;;;;;;;;;;;;;;;;4958898;28;19922;-88
2023/05/10 08:39:02;;;;;;;;;;;;;;;;;;4974289;28;19926;-86
2023/05/10 08:44:32;;;;;;;;;;;;;;;;;;4971777;28;19921;-89
2023/05/10 08:46:58;;;;;;;;;;;;;;;;;;4957254;28;19922;-89
2023/05/10 08:49:24;;;;;;;;;;;;;;;;;;4955278;28;20320;-89
2023/05/10 08:51:50;;;;;;;;;;;;;;;;;;4955942;28;19929;-90
2023/05/10 08:54:17;;;;;;;;;;;;;;;;;;4955767;28;19930;-88
2023/05/10 08:56:43;;;;;;;;;;;;;;;;;;4956433;28;20012;-89
2023/05/10 08:59:09;;;;;;;;;;;;;;;;;;4965234;28;19980;-88
2023/05/10 09:01:35;;;;;;;;;;;;;;;;;;4958896;28;20421;-88
2023/05/10 09:04:12;;;;;;;;;;;;;;;;;;4974363;28;19928;-87
2023/05/10 09:06:38;;;;;;;;;;;;;;;;;;4957638;28;19922;-88
2023/05/10 09:09:04;;;;;;;;;;;;;;;;;;4958189;28;19926;-87
2023/05/10 09:11:31;;;;;;;;;;;;;;;;;;4958277;28;19922;-89
2023/05/10 09:13:57;;;;;;;;;;;;;;;;;;4954088;28;19922;-88
2023/05/10 09:16:23;;;;;;;;;;;;;;;;;;4954254;28;20303;-86
2023/05/10 09:18:52;;;;;;;;;;;;;;;;;;4958179;28;19929;-87
2023/05/10 09:21:18;;;;;;;;;;;;;;;;;;4958193;28;19973;-87
2023/05/10 09:26:19;;;;;;;;;;;;;;;;;;4973938;28;19980;-86
2023/05/10 09:28:44;;;;;;;;;;;;;;;;;;4958013;28;19930;-86
2023/05/10 09:31:10;;;;;;;;;;;;;;;;;;4955591;28;19922;-87
2023/05/10 09:33:36;;;;;;;;;;;;;;;;;;4948048;28;20383;-88
2023/05/10 09:36:02;;;;;;;;;;;;;;;;;;4956038;28;19926;-87
2023/05/10 09:38:28;;;;;;;;;;;;;;;;;;4955958;28;20459;-88
2023/05/10 09:40:54;;;;;;;;;;;;;;;;;;4955812;28;19988;-87
2023/05/10 09:43:20;;;;;;;;;;;;;;;;;;4956215;28;19922;-86
2023/05/10 09:45:46;;;;;;;;;;;;;;;;;;4954463;28;19980;-87
2023/05/10 09:48:11;;;;;;;;;;;;;;;;;;4954828;28;19922;-87
2023/05/10 09:50:38;;;;;;;;;;;;;;;;;;4944853;28;19922;-87
2023/05/10 09:53:04;;;;;;;;;;;;;;;;;;4952003;28;20400;-86
2023/05/10 09:55:30;;;;;;;;;;;;;;;;;;4964610;28;19953;-95
2023/05/10 09:57:56;;;;;;;;;;;;;;;;;;4954689;28;19930;-90
2023/05/10 10:00:22;;;;;;;;;;;;;;;;;;4955996;28;19929;-90
2023/05/10 10:02:48;;;;;;;;;;;;;;;;;;4955734;28;19922;-92
2023/05/10 10:05:14;;;;;;;;;;;;;;;;;;4955340;28;20016;-92
2023/05/10 10:07:40;;;;;;;;;;;;;;;;;;4957732;28;19922;-93
2023/05/10 10:10:11;;;;;;;;;;;;;;;;;;4953941;28;20071;-90
2023/05/10 10:12:37;;;;;;;;;;;;;;;;;;4952898;28;19926;-90
2023/05/10 10:15:04;;;;;;;;;;;;;;;;;;4955997;28;19981;-87
2023/05/10 10:17:30;;;;;;;;;;;;;;;;;;4955525;28;19926;-88
2023/05/10 10:19:56;;;;;;;;;;;;;;;;;;4951571;28;20021;-88
2023/05/10 10:22:21;;;;;;;;;;;;;;;;;;4952882;28;19922;-87
2023/05/10 10:24:47;;;;;;;;;;;;;;;;;;4952434;28;19992;-88
2023/05/10 10:27:13;;;;;;;;;;;;;;;;;;4954423;28;19922;-88
2023/05/10 10:29:39;;;;;;;;;;;;;;;;;;4951437;28;20001;-88
2023/05/10 10:32:06;;;;;;;;;;;;;;;;;;4955063;28;19945;-87
2023/05/10 10:34:32;;;;;;;;;;;;;;;;;;4947983;28;20331;-88
2023/05/10 10:36:59;;;;;;;;;;;;;;;;;;4969772;28;19933;-88
2023/05/10 10:39:25;;;;;;;;;;;;;;;;;;4955404;28;19926;-88
2023/05/10 10:41:51;;;;;;;;;;;;;;;;;;4953323;28;19930;-88
2023/05/10 10:44:17;;;;;;;;;;;;;;;;;;4955541;28;19930;-89
2023/05/10 10:46:42;;;;;;;;;;;;;;;;;;4957321;28;19929;-90
2023/05/10 10:49:08;;;;;;;;;;;;;;;;;;4973699;28;19922;-88
2023/05/10 10:51:34;;;;;;;;;;;;;;;;;;4957094;28;19949;-90
2023/05/10 10:54:06;;;;;;;;;;;;;;;;;;4957064;28;20277;-90
2023/05/10 10:56:32;;;;;;;;;;;;;;;;;;4973938;28;19929;-88
2023/05/10 10:58:58;;;;;;;;;;;;;;;;;;4973432;28;19926;-88
2023/05/10 11:01:24;;;;;;;;;;;;;;;;;;4956692;28;19930;-88
2023/05/10 11:03:50;;;;;;;;;;;;;;;;;;4944808;29;19973;-88
2023/05/10 11:06:16;;;;;;;;;;;;;;;;;;4953860;29;19922;-89
2023/05/10 11:08:45;;;;;;;;;;;;;;;;;;4951543;28;19968;-87
2023/05/10 11:11:23;;;;;;;;;;;;;;;;;;4956782;28;19965;-88
2023/05/10 11:13:49;;;;;;;;;;;;;;;;;;4965196;28;19946;-88
2023/05/10 11:16:15;;;;;;;;;;;;;;;;;;4956238;28;19926;-88
2023/05/10 11:18:41;;;;;;;;;;;;;;;;;;4976190;28;20168;-89
2023/05/10 11:23:57;;;;;;;;;;;;;;;;;;4971383;28;20363;-89
2023/05/10 11:26:39;;;;;;;;;;;;;;;;;;4953612;28;19922;-87
2023/05/10 11:29:05;;;;;;;;;;;;;;;;;;4946621;28;20354;-86
2023/05/10 11:31:31;;;;;;;;;;;;;;;;;;4946533;28;19922;-89
2023/05/10 11:33:57;;;;;;;;;;;;;;;;;;4959036;28;19922;-88
2023/05/10 11:36:23;;;;;;;;;;;;;;;;;;4948757;28;19922;-90
2023/05/10 11:38:48;;;;;;;;;;;;;;;;;;4945395;28;20376;-88
2023/05/10 11:41:14;;;;;;;;;;;;;;;;;;4960117;28;20360;-88
2023/05/10 11:43:40;;;;;;;;;;;;;;;;;;4960162;28;20012;-86
2023/05/10 11:46:06;;;;;;;;;;;;;;;;;;4944016;28;19930;-86
2023/05/10 11:48:32;;;;;;;;;;;;;;;;;;4949480;29;19922;-87
2023/05/10 11:50:58;;;;;;;;;;;;;;;;;;4940490;29;19949;-87
2023/05/10 11:53:24;;;;;;;;;;;;;;;;;;4940757;29;20017;-86
2023/05/10 11:55:50;;;;;;;;;;;;;;;;;;4940514;29;20024;-88
2023/05/10 11:58:16;;;;;;;;;;;;;;;;;;4953057;28;20012;-87
2023/05/10 12:00:42;;;;;;;;;;;;;;;;;;4955609;28;19929;-88
2023/05/10 12:03:08;;;;;;;;;;;;;;;;;;4956795;28;19936;-88
2023/05/10 12:05:34;;;;;;;;;;;;;;;;;;4940756;29;19965;-87
2023/05/10 12:08:00;;;;;;;;;;;;;;;;;;4958296;28;19968;-88
2023/05/10 12:10:26;;;;;;;;;;;;;;;;;;4959804;28;19922;-89
2023/05/10 12:12:52;;;;;;;;;;;;;;;;;;4950419;29;19934;-85
2023/05/10 12:15:19;;;;;;;;;;;;;;;;;;4940441;29;19930;-87
2023/05/10 12:17:45;;;;;;;;;;;;;;;;;;4940185;29;19930;-88
2023/05/10 12:20:10;;;;;;;;;;;;;;;;;;4953704;28;19945;-87
2023/05/10 12:22:36;;;;;;;;;;;;;;;;;;4959057;28;19922;-88
2023/05/10 12:25:02;;;;;;;;;;;;;;;;;;4975443;28;20000;-88
2023/05/10 12:27:30;;;;;;;;;;;;;;;;;;4973953;28;19973;-87
2023/05/10 12:29:56;;;;;;;;;;;;;;;;;;4952821;29;19926;-87
2023/05/10 12:32:26;;;;;;;;;;;;;;;;;;4953468;28;20414;-87
2023/05/10 12:34:53;;;;;;;;;;;;;;;;;;4954540;28;20012;-90
2023/05/10 12:37:19;;;;;;;;;;;;;;;;;;4959739;28;20352;-91
2023/05/10 12:39:45;;;;;;;;;;;;;;;;;;4953138;28;20025;-87
2023/05/10 12:42:12;;;;;;;;;;;;;;;;;;4952400;28;20295;-89
2023/05/10 12:44:38;;;;;;;;;;;;;;;;;;4970323;28;20445;-91
2023/05/10 12:47:05;;;;;;;;;;;;;;;;;;4953514;28;19929;-92
2023/05/10 12:49:32;;;;;;;;;;;;;;;;;;4947234;28;20035;-90
2023/05/10 12:52:00;;;;;;;;;;;;;;;;;;4954258;28;19922;-89
2023/05/10 12:54:27;;;;;;;;;;;;;;;;;;4946041;28;19929;-89
2023/05/10 12:56:53;;;;;;;;;;;;;;;;;;4964978;28;20326;-90
2023/05/10 12:59:19;;;;;;;;;;;;;;;;;;4948245;28;19922;-89
2023/05/10 13:01:45;;;;;;;;;;;;;;;;;;4947643;28;19934;-87
2023/05/10 13:04:11;;;;;;;;;;;;;;;;;;4948933;28;19930;-87
2023/05/10 13:06:37;;;;;;;;;;;;;;;;;;4946977;28;20295;-90
2023/05/10 13:09:03;;;;;;;;;;;;;;;;;;4950138;28;19926;-88
2023/05/10 13:11:29;;;;;;;;;;;;;;;;;;4949648;28;19923;-88
2023/05/10 13:13:55;;;;;;;;;;;;;;;;;;4954162;28;19932;-89
2023/05/10 13:16:21;;;;;;;;;;;;;;;;;;4952650;28;19988;-88
2023/05/10 13:18:47;;;;;;;;;;;;;;;;;;4964742;28;20462;-88
2023/05/10 13:21:13;;;;;;;;;;;;;;;;;;4964577;28;19922;-86
2023/05/10 13:23:38;;;;;;;;;;;;;;;;;;4948865;29;20284;-87
2023/05/10 13:26:05;;;;;;;;;;;;;;;;;;4959714;28;19937;-87
2023/05/10 13:28:30;;;;;;;;;;;;;;;;;;4958611;28;19981;-90
2023/05/10 13:30:56;;;;;;;;;;;;;;;;;;4974691;28;19922;-87
2023/05/10 13:33:23;;;;;;;;;;;;;;;;;;4964895;28;20017;-89
2023/05/10 13:35:56;;;;;;;;;;;;;;;;;;4939566;29;19923;-89
2023/05/10 13:38:22;;;;;;;;;;;;;;;;;;4944472;28;19926;-90
2023/05/10 13:40:52;;;;;;;;;;;;;;;;;;4958103;28;19921;-88
2023/05/10 13:43:18;;;;;;;;;;;;;;;;;;4958183;28;19930;-90
2023/05/10 13:45:43;;;;;;;;;;;;;;;;;;4949982;28;19926;-88
2023/05/10 13:48:09;;;;;;;;;;;;;;;;;;4946064;29;19937;-90
2023/05/10 13:50:35;;;;;;;;;;;;;;;;;;4939111;29;19929;-90
2023/05/10 13:53:01;;;;;;;;;;;;;;;;;;4954049;28;20016;-90
2023/05/10 13:55:28;;;;;;;;;;;;;;;;;;4958411;28;20028;-89
2023/05/10 13:57:54;;;;;;;;;;;;;;;;;;4958179;28;20016;-89
2023/05/10 14:00:20;;;;;;;;;;;;;;;;;;4957785;28;19969;-89
2023/05/10 14:02:46;;;;;;;;;;;;;;;;;;4954068;28;19922;-89
2023/05/10 14:05:12;;;;;;;;;;;;;;;;;;4947860;29;20439;-92
2023/05/10 14:07:38;;;;;;;;;;;;;;;;;;4951243;28;19922;-94
2023/05/10 14:10:04;;;;;;;;;;;;;;;;;;4946774;29;20017;-93
2023/05/10 14:12:29;;;;;;;;;;;;;;;;;;4961923;28;19922;-94
2023/05/10 14:14:55;;;;;;;;;;;;;;;;;;4950943;28;19923;-94
2023/05/10 14:17:22;;;;;;;;;;;;;;;;;;4951029;28;20033;-93
2023/05/10 14:19:48;;;;;;;;;;;;;;;;;;4965584;28;19922;-92
2023/05/10 14:22:14;;;;;;;;;;;;;;;;;;4954403;28;20311;-93
2023/05/10 14:27:11;;;;;;;;;;;;;;;;;;4974127;28;19969;-93
2023/05/10 14:29:37;;;;;;;;;;;;;;;;;;4958109;28;20379;-93
2023/05/10 14:32:03;;;;;;;;;;;;;;;;;;4958490;28;19926;-92
2023/05/10 14:34:29;;;;;;;;;;;;;;;;;;4950146;28;19929;-92
2023/05/10 14:36:55;;;;;;;;;;;;;;;;;;4958801;28;20375;-96
2023/05/10 14:39:22;;;;;;;;;;;;;;;;;;4958139;28;20339;-89
2023/05/10 14:41:48;;;;;;;;;;;;;;;;;;4969581;28;19922;-90
2023/05/10 14:44:15;;;;;;;;;;;;;;;;;;4946425;28;20462;-89
2023/05/10 14:46:41;;;;;;;;;;;;;;;;;;4946836;28;20330;-90
2023/05/10 14:49:08;;;;;;;;;;;;;;;;;;4945365;29;20039;-91
2023/05/10 14:51:36;;;;;;;;;;;;;;;;;;4941709;29;20029;-90
2023/05/10 14:54:02;;;;;;;;;;;;;;;;;;4958582;29;19923;-91
2023/05/10 14:56:28;;;;;;;;;;;;;;;;;;4951597;28;20394;-91
2023/05/10 14:59:00;;;;;;;;;;;;;;;;;;4977422;28;19926;-90
2023/05/10 15:01:25;;;;;;;;;;;;;;;;;;4960585;28;19922;-89
2023/05/10 15:03:51;;;;;;;;;;;;;;;;;;4961177;28;19929;-96
2023/05/10 15:06:26;;;;;;;;;;;;;;;;;;4963653;28;19953;-94
2023/05/10 15:09:05;;;;;;;;;;;;;;;;;;4962249;29;19965;-96
2023/05/10 15:11:32;;;;;;;;;;;;;;;;;;4960947;28;19985;-91
2023/05/10 15:13:57;;;;;;;;;;;;;;;;;;4946293;29;20284;-91
2023/05/10 15:16:23;;;;;;;;;;;;;;;;;;4942153;29;19953;-90
2023/05/10 15:18:49;;;;;;;;;;;;;;;;;;4941721;29;19934;-90
2023/05/10 15:21:17;;;;;;;;;;;;;;;;;;4947174;28;20425;-90
2023/05/10 15:23:43;;;;;;;;;;;;;;;;;;4944168;29;19922;-91
2023/05/10 15:26:09;;;;;;;;;;;;;;;;;;4942820;28;19922;-90
2023/05/10 15:28:35;;;;;;;;;;;;;;;;;;4961034;28;19933;-90
2023/05/10 15:31:01;;;;;;;;;;;;;;;;;;4961055;28;19922;-91
2023/05/10 15:33:27;;;;;;;;;;;;;;;;;;4961949;28;19922;-90
2023/05/10 15:35:56;;;;;;;;;;;;;;;;;;4960878;28;19929;-90
2023/05/10 15:38:22;;;;;;;;;;;;;;;;;;4974157;28;20032;-90
2023/05/10 15:40:48;;;;;;;;;;;;;;;;;;4957571;29;20169;-91
2023/05/10 15:43:15;;;;;;;;;;;;;;;;;;4947172;28;19922;-90
2023/05/10 15:45:40;;;;;;;;;;;;;;;;;;4967635;28;19989;-89
2023/05/10 15:48:06;;;;;;;;;;;;;;;;;;4941497;29;20356;-90
2023/05/10 15:50:32;;;;;;;;;;;;;;;;;;4959614;28;20018;-90
2023/05/10 15:52:58;;;;;;;;;;;;;;;;;;4960674;28;19922;-90
2023/05/10 15:55:24;;;;;;;;;;;;;;;;;;4976922;28;20026;-90
2023/05/10 15:57:50;;;;;;;;;;;;;;;;;;4960879;28;19933;-94
2023/05/10 16:00:16;;;;;;;;;;;;;;;;;;4961092;28;19929;-90
2023/05/10 16:02:42;;;;;;;;;;;;;;;;;;4950175;28;19930;-90
2023/05/10 16:05:08;;;;;;;;;;;;;;;;;;4941631;29;19922;-91
2023/05/10 16:07:34;;;;;;;;;;;;;;;;;;4948411;28;19923;-91
2023/05/10 16:10:05;;;;;;;;;;;;;;;;;;4947511;28;19922;-91
2023/05/10 16:12:31;;;;;;;;;;;;;;;;;;4966245;28;19923;-91
2023/05/10 16:14:57;;;;;;;;;;;;;;;;;;4951317;28;19922;-90
2023/05/10 16:17:23;;;;;;;;;;;;;;;;;;4947951;28;19973;-90
2023/05/10 16:19:48;;;;;;;;;;;;;;;;;;4963536;28;19922;-90
2023/05/10 16:22:14;;;;;;;;;;;;;;;;;;4949359;28;20398;-90
2023/05/10 16:24:41;;;;;;;;;;;;;;;;;;4947537;28;19976;-90
2023/05/10 16:27:07;;;;;;;;;;;;;;;;;;4950712;28;19933;-90
2023/05/10 16:29:33;;;;;;;;;;;;;;;;;;4950115;28;19922;-91
2023/05/10 16:31:58;;;;;;;;;;;;;;;;;;4947398;29;19930;-91
2023/05/10 16:34:24;;;;;;;;;;;;;;;;;;4953691;28;19957;-91
2023/05/10 16:36:50;;;;;;;;;;;;;;;;;;4948665;28;19973;-91
2023/05/10 16:39:16;;;;;;;;;;;;;;;;;;4947543;28;20019;-92
2023/05/10 16:41:42;;;;;;;;;;;;;;;;;;4952261;28;19923;-92
2023/05/10 16:44:10;;;;;;;;;;;;;;;;;;4954656;28;21344;-91
2023/05/10 16:46:36;;;;;;;;;;;;;;;;;;4965782;28;20433;-90
2023/05/10 16:49:02;;;;;;;;;;;;;;;;;;4965110;28;19930;-90